KDLF

Laughlin Air Force Base

Airport
ICAO code
KDLF
Summary
ICAO Region
NAM
ICAO Territory
Location

Del Rio, Texas,

Elevation
1082 ft
Coordinates
29° 21' 20" N , 100° 47' 2" W
KCC
Airport LOS
Parallel Runway Operation
Airport WX
Tropical Revolving Storm
Metar
Observation
KDLF 070955Z AUTO 08006KT 10SM BKN190 20/13 A3014 RMK AO2 SLP196 T02030133 $
Station
Laughlin, Laughlin Air Force Base Auxiliary Airfield
Date/Time
2022-10-07 09:55:00
Wind direction
80°
Wind speed
06 kts
Lowest cloud amount
broken clouds
Temperature
20.3°C
Dew point
13.3°C
Humidity
64%
Weather condition
n/a

Description

Laughlin Air Force Base is a facility of the United States Air Force which is located 10 km east of the central business district of Del Rio, Texas.

Climatology

Hot, semi-arid/Steppe climate (Köppen climate classification BSh) - hot, sometimes extremely hot summers and mild to warm winters, with low annual precipitation.

Airport map

Aerial View

SKYbrary Partners:

Safety knowledge contributed by: